sensor_id;sensor_type;location;lat;lon;timestamp;temperature;humidity
3942;DHT22;1985;48.592;8.850;2023-02-24T00:01:19;9.80;99.90
3942;DHT22;1985;48.592;8.850;2023-02-24T00:03:56;9.80;99.90
3942;DHT22;1985;48.592;8.850;2023-02-24T00:06:22;9.80;99.90
3942;DHT22;1985;48.592;8.850;2023-02-24T00:08:48;9.90;99.90
3942;DHT22;1985;48.592;8.850;2023-02-24T00:11:16;9.90;99.90
3942;DHT22;1985;48.592;8.850;2023-02-24T00:13:43;9.80;99.90
3942;DHT22;1985;48.592;8.850;2023-02-24T00:16:14;9.80;99.90
3942;DHT22;1985;48.592;8.850;2023-02-24T00:18:44;9.80;99.90
3942;DHT22;1985;48.592;8.850;2023-02-24T00:21:15;9.80;99.90
3942;DHT22;1985;48.592;8.850;2023-02-24T00:23:45;9.90;99.90
3942;DHT22;1985;48.592;8.850;2023-02-24T00:26:12;9.90;99.90
3942;DHT22;1985;48.592;8.850;2023-02-24T00:28:39;9.80;99.90
3942;DHT22;1985;48.592;8.850;2023-02-24T00:31:07;9.60;99.90
3942;DHT22;1985;48.592;8.850;2023-02-24T00:33:39;9.40;99.90
3942;DHT22;1985;48.592;8.850;2023-02-24T00:36:13;9.30;99.90
3942;DHT22;1985;48.592;8.850;2023-02-24T00:38:40;9.30;99.90
3942;DHT22;1985;48.592;8.850;2023-02-24T00:41:17;9.20;99.90
3942;DHT22;1985;48.592;8.850;2023-02-24T00:43:45;9.30;99.90
3942;DHT22;1985;48.592;8.850;2023-02-24T00:46:15;9.30;99.90
3942;DHT22;1985;48.592;8.850;2023-02-24T00:48:43;9.30;99.90
3942;DHT22;1985;48.592;8.850;2023-02-24T00:51:16;9.30;99.90
3942;DHT22;1985;48.592;8.850;2023-02-24T00:53:49;9.30;99.90
3942;DHT22;1985;48.592;8.850;2023-02-24T00:56:14;9.30;99.90
3942;DHT22;1985;48.592;8.850;2023-02-24T00:58:42;9.20;99.90
3942;DHT22;1985;48.592;8.850;2023-02-24T01:01:18;9.20;99.90
3942;DHT22;1985;48.592;8.850;2023-02-24T01:03:44;9.20;99.90
3942;DHT22;1985;48.592;8.850;2023-02-24T01:06:11;9.30;99.90
3942;DHT22;1985;48.592;8.850;2023-02-24T01:08:39;9.40;99.90
3942;DHT22;1985;48.592;8.850;2023-02-24T01:11:12;9.40;99.90
3942;DHT22;1985;48.592;8.850;2023-02-24T01:13:56;9.40;99.90
3942;DHT22;1985;48.592;8.850;2023-02-24T01:16:22;9.40;99.90
3942;DHT22;1985;48.592;8.850;2023-02-24T01:18:48;9.40;99.90
3942;DHT22;1985;48.592;8.850;2023-02-24T01:21:15;9.30;99.90
3942;DHT22;1985;48.592;8.850;2023-02-24T01:23:42;9.20;99.90
3942;DHT22;1985;48.592;8.850;2023-02-24T01:26:10;9.20;99.90
3942;DHT22;1985;48.592;8.850;2023-02-24T01:28:36;9.30;99.90
3942;DHT22;1985;48.592;8.850;2023-02-24T01:31:03;9.30;99.90
3942;DHT22;1985;48.592;8.850;2023-02-24T01:33:30;9.30;99.90
3942;DHT22;1985;48.592;8.850;2023-02-24T01:36:07;9.20;99.90
3942;DHT22;1985;48.592;8.850;2023-02-24T01:38:33;9.20;99.90
3942;DHT22;1985;48.592;8.850;2023-02-24T01:41:01;9.20;99.90
3942;DHT22;1985;48.592;8.850;2023-02-24T01:43:30;9.20;99.90
3942;DHT22;1985;48.592;8.850;2023-02-24T01:45:56;9.30;99.90
3942;DHT22;1985;48.592;8.850;2023-02-24T01:48:22;9.20;99.90
3942;DHT22;1985;48.592;8.850;2023-02-24T01:50:49;9.30;99.90
3942;DHT22;1985;48.592;8.850;2023-02-24T01:53:16;9.40;99.90
3942;DHT22;1985;48.592;8.850;2023-02-24T01:55:49;9.50;99.90
3942;DHT22;1985;48.592;8.850;2023-02-24T01:58:21;9.60;99.90
3942;DHT22;1985;48.592;8.850;2023-02-24T02:00:48;9.60;99.90
3942;DHT22;1985;48.592;8.850;2023-02-24T02:03:24;9.60;99.90
3942;DHT22;1985;48.592;8.850;2023-02-24T02:05:53;9.70;99.90
3942;DHT22;1985;48.592;8.850;2023-02-24T02:08:21;9.80;99.90
3942;DHT22;1985;48.592;8.850;2023-02-24T02:10:48;9.80;99.90
3942;DHT22;1985;48.592;8.850;2023-02-24T02:13:15;9.90;99.90
3942;DHT22;1985;48.592;8.850;2023-02-24T02:21:42;9.90;99.90
3942;DHT22;1985;48.592;8.850;2023-02-24T02:32:21;9.80;99.90
3942;DHT22;1985;48.592;8.850;2023-02-24T02:35:14;9.80;99.90
3942;DHT22;1985;48.592;8.850;2023-02-24T02:40:36;9.80;99.90
3942;DHT22;1985;48.592;8.850;2023-02-24T02:43:19;9.70;99.90
3942;DHT22;1985;48.592;8.850;2023-02-24T02:45:59;9.60;99.90
3942;DHT22;1985;48.592;8.850;2023-02-24T02:51:18;9.50;99.90
3942;DHT22;1985;48.592;8.850;2023-02-24T02:56:39;9.20;99.90
3942;DHT22;1985;48.592;8.850;2023-02-24T02:59:07;9.10;99.90
3942;DHT22;1985;48.592;8.850;2023-02-24T03:01:38;8.90;99.90
3942;DHT22;1985;48.592;8.850;2023-02-24T03:04:07;8.90;99.90
3942;DHT22;1985;48.592;8.850;2023-02-24T03:06:42;9.00;99.90
3942;DHT22;1985;48.592;8.850;2023-02-24T03:09:10;9.10;99.90
3942;DHT22;1985;48.592;8.850;2023-02-24T03:11:46;9.20;99.90
3942;DHT22;1985;48.592;8.850;2023-02-24T03:14:15;9.30;99.90
3942;DHT22;1985;48.592;8.850;2023-02-24T03:16:43;9.20;99.90
3942;DHT22;1985;48.592;8.850;2023-02-24T03:19:15;9.20;99.90
3942;DHT22;1985;48.592;8.850;2023-02-24T03:21:49;9.20;99.90
3942;DHT22;1985;48.592;8.850;2023-02-24T03:24:18;9.20;99.90
3942;DHT22;1985;48.592;8.850;2023-02-24T03:26:50;9.20;99.90
3942;DHT22;1985;48.592;8.850;2023-02-24T03:29:25;9.30;99.90
3942;DHT22;1985;48.592;8.850;2023-02-24T03:32:02;9.40;99.90
3942;DHT22;1985;48.592;8.850;2023-02-24T03:37:06;9.50;99.90
3942;DHT22;1985;48.592;8.850;2023-02-24T03:39:31;9.60;99.90
3942;DHT22;1985;48.592;8.850;2023-02-24T03:42:03;9.70;99.90
3942;DHT22;1985;48.592;8.850;2023-02-24T03:44:29;9.70;99.90
3942;DHT22;1985;48.592;8.850;2023-02-24T03:46:56;9.80;99.90
3942;DHT22;1985;48.592;8.850;2023-02-24T03:49:22;9.80;99.90
3942;DHT22;1985;48.592;8.850;2023-02-24T04:03:34;8.80;99.90
3942;DHT22;1985;48.592;8.850;2023-02-24T04:06:17;8.80;99.90
3942;DHT22;1985;48.592;8.850;2023-02-24T04:11:30;8.90;99.90
3942;DHT22;1985;48.592;8.850;2023-02-24T04:14:08;8.80;99.90
3942;DHT22;1985;48.592;8.850;2023-02-24T04:16:40;8.90;99.90
3942;DHT22;1985;48.592;8.850;2023-02-24T04:19:13;8.80;99.90
3942;DHT22;1985;48.592;8.850;2023-02-24T04:21:42;8.70;99.90
3942;DHT22;1985;48.592;8.850;2023-02-24T04:24:10;8.60;99.90
3942;DHT22;1985;48.592;8.850;2023-02-24T04:26:43;8.60;99.90
3942;DHT22;1985;48.592;8.850;2023-02-24T04:29:11;8.60;99.90
3942;DHT22;1985;48.592;8.850;2023-02-24T04:31:45;8.50;99.90
3942;DHT22;1985;48.592;8.850;2023-02-24T04:34:12;8.40;99.90
3942;DHT22;1985;48.592;8.850;2023-02-24T04:36:47;8.50;99.90
3942;DHT22;1985;48.592;8.850;2023-02-24T04:39:16;8.60;99.90
3942;DHT22;1985;48.592;8.850;2023-02-24T04:41:46;8.80;99.90
3942;DHT22;1985;48.592;8.850;2023-02-24T04:44:15;8.60;99.90
3942;DHT22;1985;48.592;8.850;2023-02-24T04:46:42;8.50;99.90
3942;DHT22;1985;48.592;8.850;2023-02-24T04:49:09;8.40;99.90
3942;DHT22;1985;48.592;8.850;2023-02-24T04:51:36;8.40;99.90
3942;DHT22;1985;48.592;8.850;2023-02-24T04:54:02;8.50;99.90
3942;DHT22;1985;48.592;8.850;2023-02-24T04:56:28;8.70;99.90
3942;DHT22;1985;48.592;8.850;2023-02-24T04:58:54;8.80;99.90
3942;DHT22;1985;48.592;8.850;2023-02-24T05:01:20;9.00;99.90
3942;DHT22;1985;48.592;8.850;2023-02-24T05:03:45;9.00;99.90
3942;DHT22;1985;48.592;8.850;2023-02-24T05:06:16;9.10;99.90
3942;DHT22;1985;48.592;8.850;2023-02-24T05:08:42;9.20;99.90
3942;DHT22;1985;48.592;8.850;2023-02-24T05:11:15;9.30;99.90
3942;DHT22;1985;48.592;8.850;2023-02-24T05:13:43;9.40;99.90
3942;DHT22;1985;48.592;8.850;2023-02-24T05:16:11;9.40;99.90
3942;DHT22;1985;48.592;8.850;2023-02-24T05:18:37;9.40;99.90
3942;DHT22;1985;48.592;8.850;2023-02-24T05:21:09;9.50;99.90
3942;DHT22;1985;48.592;8.850;2023-02-24T05:23:54;9.50;99.90
3942;DHT22;1985;48.592;8.850;2023-02-24T05:26:21;9.60;99.90
3942;DHT22;1985;48.592;8.850;2023-02-24T05:28:50;9.60;99.90
3942;DHT22;1985;48.592;8.850;2023-02-24T05:31:21;9.60;99.90
3942;DHT22;1985;48.592;8.850;2023-02-24T05:33:51;9.60;99.90
3942;DHT22;1985;48.592;8.850;2023-02-24T05:36:23;9.60;99.90
3942;DHT22;1985;48.592;8.850;2023-02-24T05:38:52;9.70;99.90
3942;DHT22;1985;48.592;8.850;2023-02-24T05:41:22;9.70;99.90
3942;DHT22;1985;48.592;8.850;2023-02-24T05:43:51;9.60;99.90
3942;DHT22;1985;48.592;8.850;2023-02-24T05:46:26;9.60;99.90
3942;DHT22;1985;48.592;8.850;2023-02-24T05:48:53;9.40;99.90
3942;DHT22;1985;48.592;8.850;2023-02-24T05:51:22;9.30;99.90
3942;DHT22;1985;48.592;8.850;2023-02-24T05:53:52;9.20;99.90
3942;DHT22;1985;48.592;8.850;2023-02-24T05:56:24;9.20;99.90
3942;DHT22;1985;48.592;8.850;2023-02-24T05:58:50;9.10;99.90
3942;DHT22;1985;48.592;8.850;2023-02-24T06:01:33;9.10;99.90
3942;DHT22;1985;48.592;8.850;2023-02-24T06:04:01;9.10;99.90
3942;DHT22;1985;48.592;8.850;2023-02-24T06:06:41;9.10;99.90
3942;DHT22;1985;48.592;8.850;2023-02-24T06:09:10;9.10;99.90
3942;DHT22;1985;48.592;8.850;2023-02-24T06:11:38;9.20;99.90
3942;DHT22;1985;48.592;8.850;2023-02-24T06:14:05;9.10;99.90
3942;DHT22;1985;48.592;8.850;2023-02-24T06:16:35;9.10;99.90
3942;DHT22;1985;48.592;8.850;2023-02-24T06:19:02;8.90;99.90
3942;DHT22;1985;48.592;8.850;2023-02-24T06:21:29;8.90;99.90
3942;DHT22;1985;48.592;8.850;2023-02-24T06:23:56;8.80;99.90
3942;DHT22;1985;48.592;8.850;2023-02-24T06:26:23;8.70;99.90
3942;DHT22;1985;48.592;8.850;2023-02-24T06:28:51;8.60;99.90
3942;DHT22;1985;48.592;8.850;2023-02-24T06:31:18;8.60;99.90
3942;DHT22;1985;48.592;8.850;2023-02-24T06:33:45;8.70;99.90
3942;DHT22;1985;48.592;8.850;2023-02-24T06:36:12;8.60;99.90
3942;DHT22;1985;48.592;8.850;2023-02-24T06:38:39;8.50;99.90
3942;DHT22;1985;48.592;8.850;2023-02-24T06:41:06;8.30;99.90
3942;DHT22;1985;48.592;8.850;2023-02-24T06:43:43;8.10;99.90
3942;DHT22;1985;48.592;8.850;2023-02-24T06:46:14;8.20;99.90
3942;DHT22;1985;48.592;8.850;2023-02-24T06:48:40;8.20;99.90
3942;DHT22;1985;48.592;8.850;2023-02-24T06:51:08;8.20;99.90
3942;DHT22;1985;48.592;8.850;2023-02-24T06:53:35;8.20;99.90
3942;DHT22;1985;48.592;8.850;2023-02-24T06:56:08;8.30;99.90
3942;DHT22;1985;48.592;8.850;2023-02-24T06:58:43;8.40;99.90
3942;DHT22;1985;48.592;8.850;2023-02-24T07:01:14;8.40;99.90
3942;DHT22;1985;48.592;8.850;2023-02-24T07:03:40;8.60;99.90
3942;DHT22;1985;48.592;8.850;2023-02-24T07:06:28;8.70;99.90
3942;DHT22;1985;48.592;8.850;2023-02-24T07:08:57;8.70;99.90
3942;DHT22;1985;48.592;8.850;2023-02-24T07:11:23;8.70;99.90
3942;DHT22;1985;48.592;8.850;2023-02-24T07:13:49;8.60;99.90
3942;DHT22;1985;48.592;8.850;2023-02-24T07:16:18;8.60;99.90
3942;DHT22;1985;48.592;8.850;2023-02-24T07:18:44;8.80;99.90
3942;DHT22;1985;48.592;8.850;2023-02-24T07:21:13;8.90;99.90
3942;DHT22;1985;48.592;8.850;2023-02-24T07:23:42;9.00;99.90
3942;DHT22;1985;48.592;8.850;2023-02-24T07:26:10;9.10;99.90
3942;DHT22;1985;48.592;8.850;2023-02-24T07:28:38;9.20;99.90
3942;DHT22;1985;48.592;8.850;2023-02-24T07:31:17;9.10;99.90
3942;DHT22;1985;48.592;8.850;2023-02-24T07:33:44;8.90;99.90
3942;DHT22;1985;48.592;8.850;2023-02-24T07:36:12;8.60;99.90
3942;DHT22;1985;48.592;8.850;2023-02-24T07:38:44;8.30;99.90
3942;DHT22;1985;48.592;8.850;2023-02-24T07:41:11;8.30;99.90
3942;DHT22;1985;48.592;8.850;2023-02-24T07:43:39;8.10;99.90
3942;DHT22;1985;48.592;8.850;2023-02-24T07:46:14;8.10;99.90
3942;DHT22;1985;48.592;8.850;2023-02-24T07:48:41;8.10;99.90
3942;DHT22;1985;48.592;8.850;2023-02-24T07:53:33;8.10;99.90
3942;DHT22;1985;48.592;8.850;2023-02-24T07:55:58;8.20;99.90
3942;DHT22;1985;48.592;8.850;2023-02-24T07:58:24;8.30;99.90
3942;DHT22;1985;48.592;8.850;2023-02-24T08:00:52;8.10;99.90
3942;DHT22;1985;48.592;8.850;2023-02-24T08:03:26;8.10;99.90
3942;DHT22;1985;48.592;8.850;2023-02-24T08:05:56;8.20;99.90
3942;DHT22;1985;48.592;8.850;2023-02-24T08:08:24;8.30;99.90
3942;DHT22;1985;48.592;8.850;2023-02-24T08:10:50;8.50;99.90
3942;DHT22;1985;48.592;8.850;2023-02-24T08:13:25;8.60;99.90
3942;DHT22;1985;48.592;8.850;2023-02-24T08:15:54;8.70;99.90
3942;DHT22;1985;48.592;8.850;2023-02-24T08:18:22;8.70;99.90
3942;DHT22;1985;48.592;8.850;2023-02-24T08:20:47;8.70;99.90
3942;DHT22;1985;48.592;8.850;2023-02-24T08:23:17;8.80;99.90
3942;DHT22;1985;48.592;8.850;2023-02-24T08:25:43;9.00;99.90
3942;DHT22;1985;48.592;8.850;2023-02-24T08:28:09;9.20;99.90
3942;DHT22;1985;48.592;8.850;2023-02-24T08:30:42;9.30;99.90
3942;DHT22;1985;48.592;8.850;2023-02-24T08:33:17;9.50;99.90
3942;DHT22;1985;48.592;8.850;2023-02-24T08:35:43;9.70;99.90
3942;DHT22;1985;48.592;8.850;2023-02-24T08:38:18;9.80;99.90
3942;DHT22;1985;48.592;8.850;2023-02-24T08:40:53;9.90;99.90
3942;DHT22;1985;48.592;8.850;2023-02-24T08:43:28;9.90;99.90
3942;DHT22;1985;48.592;8.850;2023-02-24T08:45:57;10.00;99.90
3942;DHT22;1985;48.592;8.850;2023-02-24T08:51:30;10.20;99.90
3942;DHT22;1985;48.592;8.850;2023-02-24T08:54:04;10.10;99.90
3942;DHT22;1985;48.592;8.850;2023-02-24T08:56:36;9.70;99.90
3942;DHT22;1985;48.592;8.850;2023-02-24T08:59:09;9.60;99.90
3942;DHT22;1985;48.592;8.850;2023-02-24T09:01:54;9.50;99.90
3942;DHT22;1985;48.592;8.850;2023-02-24T09:04:40;9.30;99.90
3942;DHT22;1985;48.592;8.850;2023-02-24T09:07:16;9.10;99.90
3942;DHT22;1985;48.592;8.850;2023-02-24T09:09:42;9.10;99.90
3942;DHT22;1985;48.592;8.850;2023-02-24T09:12:10;9.40;99.90
3942;DHT22;1985;48.592;8.850;2023-02-24T09:14:53;9.60;99.90
3942;DHT22;1985;48.592;8.850;2023-02-24T09:17:24;9.90;99.90
3942;DHT22;1985;48.592;8.850;2023-02-24T09:20:12;10.30;99.90
3942;DHT22;1985;48.592;8.850;2023-02-24T09:23:01;10.90;99.90
3942;DHT22;1985;48.592;8.850;2023-02-24T09:25:38;11.60;99.90
3942;DHT22;1985;48.592;8.850;2023-02-24T09:30:40;12.50;99.90
3942;DHT22;1985;48.592;8.850;2023-02-24T09:35:52;13.10;99.90
3942;DHT22;1985;48.592;8.850;2023-02-24T09:38:27;13.30;99.90
3942;DHT22;1985;48.592;8.850;2023-02-24T09:44:03;13.70;99.90
3942;DHT22;1985;48.592;8.850;2023-02-24T09:46:37;13.70;99.90
3942;DHT22;1985;48.592;8.850;2023-02-24T09:49:14;13.40;99.90
3942;DHT22;1985;48.592;8.850;2023-02-24T09:51:42;13.40;99.90
3942;DHT22;1985;48.592;8.850;2023-02-24T09:54:16;13.20;99.90
3942;DHT22;1985;48.592;8.850;2023-02-24T09:56:53;13.20;99.90
3942;DHT22;1985;48.592;8.850;2023-02-24T09:59:56;13.20;99.90
3942;DHT22;1985;48.592;8.850;2023-02-24T10:03:20;13.00;99.90
3942;DHT22;1985;48.592;8.850;2023-02-24T10:06:20;12.70;99.90
3942;DHT22;1985;48.592;8.850;2023-02-24T10:11:43;13.20;99.90
3942;DHT22;1985;48.592;8.850;2023-02-24T10:14:46;13.30;99.90
3942;DHT22;1985;48.592;8.850;2023-02-24T10:17:23;13.00;99.90
3942;DHT22;1985;48.592;8.850;2023-02-24T10:19:58;12.30;99.90
3942;DHT22;1985;48.592;8.850;2023-02-24T10:22:39;12.20;99.90
3942;DHT22;1985;48.592;8.850;2023-02-24T10:28:31;11.80;99.90
3942;DHT22;1985;48.592;8.850;2023-02-24T10:31:14;11.70;99.90
3942;DHT22;1985;48.592;8.850;2023-02-24T10:33:58;11.70;99.90
3942;DHT22;1985;48.592;8.850;2023-02-24T10:36:25;11.60;99.90
3942;DHT22;1985;48.592;8.850;2023-02-24T10:39:15;11.50;99.90
3942;DHT22;1985;48.592;8.850;2023-02-24T10:41:47;11.40;99.90
3942;DHT22;1985;48.592;8.850;2023-02-24T10:44:27;11.30;99.90
3942;DHT22;1985;48.592;8.850;2023-02-24T10:47:10;11.00;99.90
3942;DHT22;1985;48.592;8.850;2023-02-24T10:49:46;10.80;99.90
3942;DHT22;1985;48.592;8.850;2023-02-24T10:52:39;10.70;99.90
3942;DHT22;1985;48.592;8.850;2023-02-24T10:55:43;10.60;99.90
3942;DHT22;1985;48.592;8.850;2023-02-24T10:58:31;10.60;99.90
3942;DHT22;1985;48.592;8.850;2023-02-24T11:03:50;10.30;99.90
3942;DHT22;1985;48.592;8.850;2023-02-24T11:06:31;10.20;99.90
3942;DHT22;1985;48.592;8.850;2023-02-24T11:09:16;10.30;99.90
3942;DHT22;1985;48.592;8.850;2023-02-24T11:11:56;10.40;99.90
3942;DHT22;1985;48.592;8.850;2023-02-24T11:15:16;10.50;99.90
3942;DHT22;1985;48.592;8.850;2023-02-24T11:17:58;10.30;99.90
3942;DHT22;1985;48.592;8.850;2023-02-24T11:20:37;10.50;99.90
3942;DHT22;1985;48.592;8.850;2023-02-24T11:23:08;10.50;99.90
3942;DHT22;1985;48.592;8.850;2023-02-24T11:25:41;10.50;99.90
3942;DHT22;1985;48.592;8.850;2023-02-24T11:28:18;10.60;99.90
3942;DHT22;1985;48.592;8.850;2023-02-24T11:31:18;10.70;99.90
3942;DHT22;1985;48.592;8.850;2023-02-24T11:41:30;11.10;99.90
3942;DHT22;1985;48.592;8.850;2023-02-24T11:44:04;11.20;99.90
3942;DHT22;1985;48.592;8.850;2023-02-24T11:46:47;11.60;99.90
3942;DHT22;1985;48.592;8.850;2023-02-24T11:49:30;12.10;99.90
3942;DHT22;1985;48.592;8.850;2023-02-24T11:52:02;12.50;99.90
3942;DHT22;1985;48.592;8.850;2023-02-24T11:54:38;12.80;99.90
3942;DHT22;1985;48.592;8.850;2023-02-24T11:57:21;13.30;99.90
3942;DHT22;1985;48.592;8.850;2023-02-24T12:00:02;14.00;99.90
3942;DHT22;1985;48.592;8.850;2023-02-24T12:05:14;17.30;99.90
3942;DHT22;1985;48.592;8.850;2023-02-24T12:07:50;16.80;98.80
3942;DHT22;1985;48.592;8.850;2023-02-24T12:10:24;15.90;99.20
3942;DHT22;1985;48.592;8.850;2023-02-24T12:13:15;15.00;99.60
3942;DHT22;1985;48.592;8.850;2023-02-24T12:21:48;14.10;99.90
3942;DHT22;1985;48.592;8.850;2023-02-24T12:24:15;14.00;99.90
3942;DHT22;1985;48.592;8.850;2023-02-24T12:27:08;13.80;99.90
3942;DHT22;1985;48.592;8.850;2023-02-24T12:29:46;13.70;99.90
3942;DHT22;1985;48.592;8.850;2023-02-24T12:32:29;13.60;99.90
3942;DHT22;1985;48.592;8.850;2023-02-24T12:43:14;13.90;99.90
3942;DHT22;1985;48.592;8.850;2023-02-24T12:45:52;14.00;99.90
3942;DHT22;1985;48.592;8.850;2023-02-24T12:48:37;14.20;99.90
3942;DHT22;1985;48.592;8.850;2023-02-24T12:51:10;14.20;99.90
3942;DHT22;1985;48.592;8.850;2023-02-24T12:56:40;14.20;99.90
3942;DHT22;1985;48.592;8.850;2023-02-24T12:59:12;14.20;99.90
3942;DHT22;1985;48.592;8.850;2023-02-24T13:02:06;14.30;99.90
3942;DHT22;1985;48.592;8.850;2023-02-24T13:10:04;14.90;99.90
3942;DHT22;1985;48.592;8.850;2023-02-24T13:13:03;15.10;99.90
3942;DHT22;1985;48.592;8.850;2023-02-24T13:15:31;15.10;99.90
3942;DHT22;1985;48.592;8.850;2023-02-24T13:17:57;15.00;99.80
3942;DHT22;1985;48.592;8.850;2023-02-24T13:20:35;14.80;99.00
3942;DHT22;1985;48.592;8.850;2023-02-24T13:23:15;14.30;99.70
3942;DHT22;1985;48.592;8.850;2023-02-24T13:25:52;14.00;99.90
3942;DHT22;1985;48.592;8.850;2023-02-24T13:31:04;13.60;99.90
3942;DHT22;1985;48.592;8.850;2023-02-24T13:33:41;13.10;99.90
3942;DHT22;1985;48.592;8.850;2023-02-24T13:36:12;12.50;99.90
3942;DHT22;1985;48.592;8.850;2023-02-24T13:38:44;12.10;99.90
3942;DHT22;1985;48.592;8.850;2023-02-24T14:02:30;11.00;99.90
3942;DHT22;1985;48.592;8.850;2023-02-24T14:04:57;11.00;99.90
3942;DHT22;1985;48.592;8.850;2023-02-24T14:07:29;10.80;99.90
3942;DHT22;1985;48.592;8.850;2023-02-24T14:09:59;10.90;99.90
3942;DHT22;1985;48.592;8.850;2023-02-24T14:12:27;10.90;99.90
3942;DHT22;1985;48.592;8.850;2023-02-24T14:14:54;10.90;99.90
3942;DHT22;1985;48.592;8.850;2023-02-24T14:22:28;11.10;99.90
3942;DHT22;1985;48.592;8.850;2023-02-24T14:25:01;11.10;99.90
3942;DHT22;1985;48.592;8.850;2023-02-24T14:27:27;11.10;99.90
3942;DHT22;1985;48.592;8.850;2023-02-24T14:29:52;10.90;99.90
3942;DHT22;1985;48.592;8.850;2023-02-24T14:32:23;10.80;99.90
3942;DHT22;1985;48.592;8.850;2023-02-24T14:34:50;10.90;99.90
3942;DHT22;1985;48.592;8.850;2023-02-24T14:37:20;10.90;99.90
3942;DHT22;1985;48.592;8.850;2023-02-24T14:39:53;10.90;99.90
3942;DHT22;1985;48.592;8.850;2023-02-24T14:42:20;10.90;99.90
3942;DHT22;1985;48.592;8.850;2023-02-24T14:44:57;10.80;99.90
3942;DHT22;1985;48.592;8.850;2023-02-24T14:47:25;10.80;99.90
3942;DHT22;1985;48.592;8.850;2023-02-24T14:49:57;10.90;99.90
3942;DHT22;1985;48.592;8.850;2023-02-24T14:53:02;10.90;99.90
3942;DHT22;1985;48.592;8.850;2023-02-24T14:55:39;10.60;99.90
3942;DHT22;1985;48.592;8.850;2023-02-24T15:00:39;10.70;99.90
3942;DHT22;1985;48.592;8.850;2023-02-24T15:03:09;10.60;99.90
3942;DHT22;1985;48.592;8.850;2023-02-24T15:05:46;10.50;99.90
3942;DHT22;1985;48.592;8.850;2023-02-24T15:11:28;10.50;99.90
3942;DHT22;1985;48.592;8.850;2023-02-24T15:13:57;10.50;99.90
3942;DHT22;1985;48.592;8.850;2023-02-24T15:16:39;10.50;99.90
3942;DHT22;1985;48.592;8.850;2023-02-24T15:19:24;10.40;99.90
3942;DHT22;1985;48.592;8.850;2023-02-24T15:21:51;10.40;99.90
3942;DHT22;1985;48.592;8.850;2023-02-24T15:27:00;10.50;99.90
3942;DHT22;1985;48.592;8.850;2023-02-24T15:29:29;10.40;99.90
3942;DHT22;1985;48.592;8.850;2023-02-24T15:31:57;10.30;99.90
3942;DHT22;1985;48.592;8.850;2023-02-24T15:34:28;10.30;99.90
3942;DHT22;1985;48.592;8.850;2023-02-24T15:37:01;10.30;99.90
3942;DHT22;1985;48.592;8.850;2023-02-24T15:39:31;10.20;99.90
3942;DHT22;1985;48.592;8.850;2023-02-24T15:42:15;10.00;99.90
3942;DHT22;1985;48.592;8.850;2023-02-24T15:44:52;9.90;99.90
3942;DHT22;1985;48.592;8.850;2023-02-24T15:47:22;9.80;99.90
3942;DHT22;1985;48.592;8.850;2023-02-24T15:49:48;9.70;99.90
3942;DHT22;1985;48.592;8.850;2023-02-24T15:52:15;9.50;99.90
3942;DHT22;1985;48.592;8.850;2023-02-24T15:54:41;9.50;99.90
3942;DHT22;1985;48.592;8.850;2023-02-24T15:57:14;9.50;99.90
3942;DHT22;1985;48.592;8.850;2023-02-24T15:59:41;9.60;99.90
3942;DHT22;1985;48.592;8.850;2023-02-24T16:02:12;9.70;99.90
3942;DHT22;1985;48.592;8.850;2023-02-24T16:04:38;9.60;99.90
3942;DHT22;1985;48.592;8.850;2023-02-24T16:07:05;9.60;99.90
3942;DHT22;1985;48.592;8.850;2023-02-24T16:09:36;9.70;99.90
3942;DHT22;1985;48.592;8.850;2023-02-24T16:12:09;9.80;99.90
3942;DHT22;1985;48.592;8.850;2023-02-24T16:14:35;9.90;99.90
3942;DHT22;1985;48.592;8.850;2023-02-24T16:17:04;9.90;99.90
3942;DHT22;1985;48.592;8.850;2023-02-24T16:19:31;9.60;99.90
3942;DHT22;1985;48.592;8.850;2023-02-24T16:21:56;9.40;99.90
3942;DHT22;1985;48.592;8.850;2023-02-24T16:24:22;9.30;99.90
3942;DHT22;1985;48.592;8.850;2023-02-24T16:26:47;9.30;99.90
3942;DHT22;1985;48.592;8.850;2023-02-24T16:29:14;9.20;99.90
3942;DHT22;1985;48.592;8.850;2023-02-24T16:31:40;9.20;99.90
3942;DHT22;1985;48.592;8.850;2023-02-24T16:34:06;9.20;99.90
3942;DHT22;1985;48.592;8.850;2023-02-24T16:36:32;9.10;99.90
3942;DHT22;1985;48.592;8.850;2023-02-24T16:38:58;9.00;99.90
3942;DHT22;1985;48.592;8.850;2023-02-24T16:41:25;9.10;99.90
3942;DHT22;1985;48.592;8.850;2023-02-24T16:43:51;9.20;99.90
3942;DHT22;1985;48.592;8.850;2023-02-24T16:46:19;9.10;99.90
3942;DHT22;1985;48.592;8.850;2023-02-24T16:48:47;9.20;99.90
3942;DHT22;1985;48.592;8.850;2023-02-24T16:51:15;9.20;99.90
3942;DHT22;1985;48.592;8.850;2023-02-24T16:53:41;9.00;99.90
3942;DHT22;1985;48.592;8.850;2023-02-24T16:56:07;9.00;99.90
3942;DHT22;1985;48.592;8.850;2023-02-24T16:58:33;8.90;99.90
3942;DHT22;1985;48.592;8.850;2023-02-24T17:01:00;8.70;99.90
3942;DHT22;1985;48.592;8.850;2023-02-24T17:03:32;8.70;99.90
3942;DHT22;1985;48.592;8.850;2023-02-24T17:05:59;8.60;99.90
3942;DHT22;1985;48.592;8.850;2023-02-24T17:08:25;8.70;99.90
3942;DHT22;1985;48.592;8.850;2023-02-24T17:10:50;8.70;99.90
3942;DHT22;1985;48.592;8.850;2023-02-24T17:13:19;8.80;99.90
3942;DHT22;1985;48.592;8.850;2023-02-24T17:15:46;8.80;99.90
3942;DHT22;1985;48.592;8.850;2023-02-24T17:18:12;8.80;99.90
3942;DHT22;1985;48.592;8.850;2023-02-24T17:20:39;8.80;99.90
3942;DHT22;1985;48.592;8.850;2023-02-24T17:23:05;8.70;99.90
3942;DHT22;1985;48.592;8.850;2023-02-24T17:25:31;8.60;99.90
3942;DHT22;1985;48.592;8.850;2023-02-24T17:27:58;8.40;99.90
3942;DHT22;1985;48.592;8.850;2023-02-24T17:30:27;8.60;99.90
3942;DHT22;1985;48.592;8.850;2023-02-24T17:32:53;8.70;99.90
3942;DHT22;1985;48.592;8.850;2023-02-24T17:35:19;8.80;99.90
3942;DHT22;1985;48.592;8.850;2023-02-24T17:37:45;8.60;99.90
3942;DHT22;1985;48.592;8.850;2023-02-24T17:40:11;8.50;99.90
3942;DHT22;1985;48.592;8.850;2023-02-24T17:42:37;8.40;99.90
3942;DHT22;1985;48.592;8.850;2023-02-24T17:45:04;8.40;99.90
3942;DHT22;1985;48.592;8.850;2023-02-24T17:47:31;8.20;99.90
3942;DHT22;1985;48.592;8.850;2023-02-24T17:49:57;8.20;99.90
3942;DHT22;1985;48.592;8.850;2023-02-24T17:52:22;8.20;99.90
3942;DHT22;1985;48.592;8.850;2023-02-24T17:54:48;8.30;99.90
3942;DHT22;1985;48.592;8.850;2023-02-24T17:57:15;8.20;99.90
3942;DHT22;1985;48.592;8.850;2023-02-24T17:59:42;8.40;99.90
3942;DHT22;1985;48.592;8.850;2023-02-24T18:02:11;8.10;99.90
3942;DHT22;1985;48.592;8.850;2023-02-24T18:04:37;8.10;99.90
3942;DHT22;1985;48.592;8.850;2023-02-24T18:07:02;8.10;99.90
3942;DHT22;1985;48.592;8.850;2023-02-24T18:09:28;8.20;99.90
3942;DHT22;1985;48.592;8.850;2023-02-24T18:11:54;8.20;99.90
3942;DHT22;1985;48.592;8.850;2023-02-24T18:14:20;8.10;99.90
3942;DHT22;1985;48.592;8.850;2023-02-24T18:16:46;8.10;99.90
3942;DHT22;1985;48.592;8.850;2023-02-24T18:19:11;8.10;99.90
3942;DHT22;1985;48.592;8.850;2023-02-24T18:21:37;7.90;99.90
3942;DHT22;1985;48.592;8.850;2023-02-24T18:24:03;7.60;99.90
3942;DHT22;1985;48.592;8.850;2023-02-24T18:26:29;7.40;99.90
3942;DHT22;1985;48.592;8.850;2023-02-24T18:28:55;7.30;99.90
3942;DHT22;1985;48.592;8.850;2023-02-24T18:31:23;7.00;99.90
3942;DHT22;1985;48.592;8.850;2023-02-24T18:33:49;7.00;99.90
3942;DHT22;1985;48.592;8.850;2023-02-24T18:36:16;6.90;99.90
3942;DHT22;1985;48.592;8.850;2023-02-24T18:38:42;6.90;99.90
3942;DHT22;1985;48.592;8.850;2023-02-24T18:41:11;6.90;99.90
3942;DHT22;1985;48.592;8.850;2023-02-24T18:43:37;6.80;99.90
3942;DHT22;1985;48.592;8.850;2023-02-24T18:46:05;6.70;99.90
3942;DHT22;1985;48.592;8.850;2023-02-24T18:48:32;6.70;99.90
3942;DHT22;1985;48.592;8.850;2023-02-24T18:50:58;6.70;99.90
3942;DHT22;1985;48.592;8.850;2023-02-24T18:53:26;6.70;99.90